Time;durP1;ratioP1;P1;durP2;ratioP2;P2;SDS_P1;SDS_P2;PMS_P1;PMS_P2;Temp;Humidity;BMP_temperature;BMP_pressure;BME280_temperature;BME280_humidity;BME280_pressure;Samples;Min_cycle;Max_cycle;Signal;HPM_P1;HPM_P2
2021/04/20 00:01:14;;;;;;;50.50;32.60;;;10.50;99.90;;;;;;5112610;28;20537;-72
2021/04/20 00:03:40;;;;;;;46.03;32.38;;;10.50;99.90;;;;;;5094000;28;20047;-72
2021/04/20 00:06:09;;;;;;;44.60;32.63;;;10.40;99.90;;;;;;5106749;28;20096;-71
2021/04/20 00:08:37;;;;;;;47.40;33.60;;;10.40;99.90;;;;;;5100288;28;20038;-72
2021/04/20 00:11:04;;;;;;;46.63;32.05;;;10.30;99.90;;;;;;5098899;28;20468;-71
2021/04/20 00:13:31;;;;;;;44.33;33.05;;;10.40;99.90;;;;;;5105589;28;20107;-71
2021/04/20 00:15:57;;;;;;;46.13;33.50;;;10.70;99.90;;;;;;5096380;28;20050;-71
2021/04/20 00:18:22;;;;;;;47.08;32.85;;;10.30;99.90;;;;;;5075638;28;20040;-72
2021/04/20 00:20:51;;;;;;;47.25;32.05;;;10.30;99.90;;;;;;5094186;28;20395;-72
2021/04/20 00:23:16;;;;;;;47.85;33.15;;;10.20;99.90;;;;;;5101711;28;20043;-71
2021/04/20 00:25:42;;;;;;;45.67;33.15;;;10.30;99.90;;;;;;5116216;28;20122;-71
2021/04/20 00:28:08;;;;;;;44.80;32.97;;;10.20;99.90;;;;;;5095520;28;20050;-71
2021/04/20 00:30:34;;;;;;;45.35;33.13;;;10.20;99.90;;;;;;5116025;28;20051;-71
2021/04/20 00:33:00;;;;;;;45.97;34.63;;;10.10;99.90;;;;;;5077444;28;20028;-71
2021/04/20 00:35:26;;;;;;;47.90;33.97;;;10.50;99.90;;;;;;5115793;28;20032;-71
2021/04/20 00:37:52;;;;;;;51.40;34.20;;;10.00;99.90;;;;;;5115732;28;20056;-71
2021/04/20 00:40:19;;;;;;;41.15;32.42;;;10.50;99.90;;;;;;5115484;28;20060;-71
2021/04/20 00:42:47;;;;;;;47.72;34.13;;;10.00;99.90;;;;;;5089612;28;20036;-71
2021/04/20 00:45:20;;;;;;;52.13;34.50;;;9.90;99.90;;;;;;5114199;28;20082;-71
2021/04/20 00:47:46;;;;;;;48.00;33.55;;;9.90;99.90;;;;;;5115572;28;20035;-73
2021/04/20 00:50:14;;;;;;;49.72;33.58;;;10.20;99.90;;;;;;5097353;28;20060;-72
2021/04/20 00:52:40;;;;;;;47.25;32.92;;;9.90;99.90;;;;;;5115695;28;20088;-72
2021/04/20 00:55:07;;;;;;;48.25;33.13;;;9.90;99.90;;;;;;5115393;28;20032;-72
2021/04/20 00:57:33;;;;;;;49.55;34.40;;;9.80;99.90;;;;;;5099780;28;20040;-72
2021/04/20 00:59:59;;;;;;;47.65;33.03;;;9.90;99.90;;;;;;5115183;28;20031;-72
2021/04/20 01:02:26;;;;;;;43.97;32.13;;;9.90;99.90;;;;;;5080023;28;20083;-72
2021/04/20 01:04:52;;;;;;;49.05;35.17;;;10.00;99.90;;;;;;5114364;28;20058;-71
2021/04/20 01:07:18;;;;;;;44.42;32.05;;;9.90;99.90;;;;;;5097399;28;20042;-73
2021/04/20 01:09:47;;;;;;;51.85;33.25;;;9.80;99.90;;;;;;5114235;28;20074;-72
2021/04/20 01:12:13;;;;;;;44.92;33.05;;;10.20;99.90;;;;;;5115449;28;20031;-72
2021/04/20 01:14:39;;;;;;;47.15;33.25;;;9.80;99.90;;;;;;5114859;28;20038;-72
2021/04/20 01:17:05;;;;;;;45.97;31.48;;;9.80;99.90;;;;;;5113480;28;20040;-72
2021/04/20 01:19:32;;;;;;;46.40;32.35;;;9.90;99.90;;;;;;5102114;28;20039;-74
2021/04/20 01:21:59;;;;;;;43.28;31.63;;;9.80;99.90;;;;;;5114974;28;20419;-74
2021/04/20 01:24:29;;;;;;;46.47;31.25;;;9.80;99.90;;;;;;5097059;28;20044;-74
2021/04/20 01:26:57;;;;;;;44.35;31.15;;;9.70;99.90;;;;;;5114344;28;20069;-74
2021/04/20 01:29:23;;;;;;;40.25;30.15;;;9.80;99.90;;;;;;5102640;28;20099;-74
2021/04/20 01:31:49;;;;;;;44.97;32.35;;;9.80;99.90;;;;;;5114881;28;20036;-74
2021/04/20 01:34:16;;;;;;;44.35;32.03;;;9.70;99.90;;;;;;5112720;28;20028;-73
2021/04/20 01:36:42;;;;;;;51.83;33.30;;;9.80;99.90;;;;;;5105257;28;20109;-74
2021/04/20 01:39:10;;;;;;;46.83;33.00;;;10.00;99.90;;;;;;5096692;28;20130;-72
2021/04/20 01:41:37;;;;;;;43.80;32.42;;;10.50;99.90;;;;;;5096572;28;20491;-72
2021/04/20 01:44:05;;;;;;;48.45;34.28;;;9.90;99.90;;;;;;5111409;28;20036;-72
2021/04/20 01:46:31;;;;;;;51.97;36.25;;;9.80;99.90;;;;;;5114613;28;20042;-72
2021/04/20 01:48:57;;;;;;;47.03;33.05;;;9.80;99.90;;;;;;5114229;28;20041;-72
2021/04/20 01:51:28;;;;;;;46.55;34.08;;;9.90;99.90;;;;;;5114547;28;20067;-72
2021/04/20 01:53:57;;;;;;;50.45;33.83;;;9.90;99.90;;;;;;5096365;28;20554;-72
2021/04/20 01:56:26;;;;;;;52.95;34.22;;;9.90;99.90;;;;;;5096972;28;20505;-72
2021/04/20 01:58:53;;;;;;;46.53;33.72;;;10.60;99.90;;;;;;5114728;28;20036;-72
2021/04/20 02:01:22;;;;;;;49.08;34.47;;;10.20;99.90;;;;;;5094539;28;20564;-73
2021/04/20 02:03:55;;;;;;;50.50;35.35;;;10.00;99.90;;;;;;5097365;28;20043;-73
2021/04/20 02:06:26;;;;;;;46.22;34.65;;;10.00;99.90;;;;;;5078378;28;20042;-72
2021/04/20 02:08:54;;;;;;;52.80;36.28;;;10.00;99.90;;;;;;5113940;28;20453;-72
2021/04/20 02:11:23;;;;;;;50.35;35.50;;;10.00;99.90;;;;;;5096327;28;20040;-72
2021/04/20 02:13:50;;;;;;;52.17;35.40;;;10.00;99.90;;;;;;5113878;28;20024;-73
2021/04/20 02:16:16;;;;;;;53.75;37.35;;;10.10;99.90;;;;;;5094574;27;20038;-74
2021/04/20 02:18:47;;;;;;;53.55;36.85;;;10.10;99.90;;;;;;5100495;28;20070;-74
2021/04/20 02:21:13;;;;;;;56.67;39.08;;;10.00;99.90;;;;;;5113918;28;20096;-74
2021/04/20 02:23:43;;;;;;;49.35;36.63;;;10.10;99.90;;;;;;5113786;28;20467;-74
2021/04/20 02:26:12;;;;;;;54.17;38.90;;;10.10;99.90;;;;;;5113935;28;20070;-72
2021/04/20 02:28:39;;;;;;;54.78;39.22;;;10.10;99.90;;;;;;5113038;28;20048;-74
2021/04/20 02:31:07;;;;;;;55.85;39.72;;;10.00;99.90;;;;;;5096122;28;20042;-74
2021/04/20 02:33:34;;;;;;;57.63;38.83;;;10.10;99.90;;;;;;5095493;28;20099;-74
2021/04/20 02:36:00;;;;;;;52.58;35.50;;;10.00;99.90;;;;;;5113671;28;20143;-74
2021/04/20 02:38:27;;;;;;;49.50;33.55;;;10.00;99.90;;;;;;5095368;28;20067;-74
2021/04/20 02:40:55;;;;;;;50.70;34.53;;;10.10;99.90;;;;;;5095410;28;20110;-74
2021/04/20 02:43:21;;;;;;;51.70;34.80;;;10.00;99.90;;;;;;5095337;28;20063;-74
2021/04/20 02:45:54;;;;;;;48.60;33.42;;;10.00;99.90;;;;;;5113279;28;20096;-74
2021/04/20 02:48:21;;;;;;;48.15;33.78;;;9.80;99.90;;;;;;5094448;28;20032;-73
2021/04/20 02:50:48;;;;;;;49.22;32.75;;;9.80;99.90;;;;;;5112913;28;20490;-74
2021/04/20 02:53:16;;;;;;;48.88;32.03;;;9.70;99.90;;;;;;5113448;28;20047;-74
2021/04/20 02:55:43;;;;;;;44.45;33.25;;;9.70;99.90;;;;;;5101815;28;20073;-73
2021/04/20 02:58:20;;;;;;;50.40;33.17;;;9.70;99.90;;;;;;5095177;28;20032;-73
2021/04/20 03:01:23;;;;;;;47.92;31.20;;;9.70;99.90;;;;;;5095126;28;20039;-72
2021/04/20 03:03:50;;;;;;;51.95;31.42;;;9.70;99.90;;;;;;5086299;28;20044;-72
2021/04/20 03:06:17;;;;;;;49.08;31.55;;;10.10;99.90;;;;;;5112520;28;20098;-73
2021/04/20 03:08:44;;;;;;;41.65;30.17;;;9.70;99.90;;;;;;5113179;28;20028;-72
2021/04/20 03:11:26;;;;;;;44.00;30.70;;;9.80;99.90;;;;;;5112685;28;20036;-72
2021/04/20 03:13:52;;;;;;;44.35;29.98;;;9.70;99.90;;;;;;5113198;28;20475;-72
2021/04/20 03:16:20;;;;;;;46.60;29.73;;;9.70;99.90;;;;;;5097935;28;20047;-72
2021/04/20 03:18:48;;;;;;;43.72;28.20;;;9.90;99.90;;;;;;5095121;28;20394;-72
2021/04/20 03:21:18;;;;;;;45.80;29.10;;;9.70;99.90;;;;;;5113075;28;20039;-72
2021/04/20 03:23:45;;;;;;;49.22;28.88;;;9.80;99.90;;;;;;5097964;28;20036;-75
2021/04/20 03:26:41;;;;;;;41.20;28.92;;;9.80;99.90;;;;;;5097014;28;20039;-73
2021/04/20 03:29:09;;;;;;;39.85;27.77;;;9.80;99.90;;;;;;5101039;28;20058;-73
2021/04/20 03:31:40;;;;;;;43.67;26.75;;;9.80;99.90;;;;;;5092559;28;20040;-74
2021/04/20 03:34:15;;;;;;;41.17;27.05;;;9.80;99.90;;;;;;5112602;28;20035;-74
2021/04/20 03:36:48;;;;;;;39.83;27.43;;;9.80;99.90;;;;;;5112330;28;20040;-75
2021/04/20 03:39:20;;;;;;;42.92;28.10;;;9.70;99.90;;;;;;5094772;28;20084;-74
2021/04/20 03:42:11;;;;;;;46.10;28.63;;;9.80;99.90;;;;;;5112862;28;20039;-74
2021/04/20 03:44:46;;;;;;;39.25;25.95;;;9.70;99.90;;;;;;5098811;28;20031;-73
2021/04/20 03:47:19;;;;;;;37.03;25.63;;;9.80;99.90;;;;;;5099702;28;20055;-74
2021/04/20 03:49:47;;;;;;;39.45;27.35;;;9.80;99.90;;;;;;5115669;28;20114;-74
2021/04/20 03:52:43;;;;;;;37.05;26.05;;;9.90;99.90;;;;;;5099370;28;20059;-74
2021/04/20 03:55:12;;;;;;;37.47;26.10;;;9.80;99.90;;;;;;5094738;28;20059;-74
2021/04/20 03:57:42;;;;;;;40.97;26.40;;;9.80;99.90;;;;;;5116383;28;20301;-74
2021/04/20 04:00:15;;;;;;;38.65;25.67;;;9.80;99.90;;;;;;5116823;28;20043;-74
2021/04/20 04:02:46;;;;;;;34.58;25.67;;;9.70;99.90;;;;;;5116592;28;20405;-74
2021/04/20 04:05:17;;;;;;;40.08;25.98;;;9.70;99.90;;;;;;5098141;28;20114;-74
2021/04/20 04:07:46;;;;;;;36.83;26.55;;;10.00;99.90;;;;;;5116754;28;20119;-74
2021/04/20 04:10:12;;;;;;;44.70;28.17;;;9.60;99.90;;;;;;5109070;27;20036;-74
2021/04/20 04:12:39;;;;;;;51.30;28.50;;;9.50;99.90;;;;;;5116477;28;20031;-74
2021/04/20 04:15:09;;;;;;;41.33;28.35;;;9.50;99.90;;;;;;5116248;28;20570;-74
2021/04/20 04:17:36;;;;;;;46.70;29.33;;;9.50;99.90;;;;;;5116279;28;20118;-74
2021/04/20 04:20:05;;;;;;;45.97;28.20;;;9.50;99.90;;;;;;5115817;28;20402;-74
2021/04/20 04:22:37;;;;;;;39.45;29.13;;;9.40;99.90;;;;;;5116278;28;20036;-74
2021/04/20 04:25:06;;;;;;;42.65;29.77;;;9.40;99.90;;;;;;5114419;28;20039;-73
2021/04/20 04:27:36;;;;;;;37.92;26.33;;;9.40;99.90;;;;;;5115522;28;20488;-74
2021/04/20 04:30:07;;;;;;;48.20;29.15;;;9.50;99.90;;;;;;5115914;28;20112;-74
2021/04/20 04:32:35;;;;;;;42.85;28.48;;;9.40;99.90;;;;;;5115845;28;20054;-74
2021/04/20 04:35:05;;;;;;;40.90;28.02;;;9.30;99.90;;;;;;5116057;28;20128;-74
2021/04/20 04:37:34;;;;;;;42.40;27.88;;;9.30;99.90;;;;;;5100255;28;20035;-74
2021/04/20 04:40:01;;;;;;;42.20;28.08;;;9.30;99.90;;;;;;5115783;28;20038;-74
2021/04/20 04:42:27;;;;;;;41.78;26.77;;;8.80;99.90;;;;;;5115833;28;20114;-74
2021/04/20 04:44:55;;;;;;;44.47;28.80;;;9.30;99.90;;;;;;5112902;28;20412;-74
2021/04/20 04:47:22;;;;;;;44.03;29.30;;;9.30;99.90;;;;;;5115401;28;20439;-73
2021/04/20 04:49:48;;;;;;;44.30;29.60;;;9.30;99.90;;;;;;5097701;28;20035;-74
2021/04/20 04:52:15;;;;;;;44.10;29.42;;;9.20;99.90;;;;;;5097388;28;20035;-75
2021/04/20 04:54:44;;;;;;;41.83;29.35;;;9.20;99.90;;;;;;5096534;28;20032;-75
2021/04/20 04:57:15;;;;;;;48.75;28.40;;;9.20;99.90;;;;;;5101865;28;20070;-75
2021/04/20 04:59:44;;;;;;;42.28;29.08;;;9.20;99.90;;;;;;5115077;28;20031;-74
2021/04/20 05:02:11;;;;;;;41.97;27.50;;;9.20;99.90;;;;;;5114688;28;20035;-73
2021/04/20 05:04:37;;;;;;;44.35;29.30;;;9.20;99.90;;;;;;5089289;28;20050;-75
2021/04/20 05:07:03;;;;;;;43.88;29.23;;;9.10;99.90;;;;;;5115518;28;20035;-75
2021/04/20 05:09:29;;;;;;;43.40;29.38;;;9.10;99.90;;;;;;5087509;28;20043;-73
2021/04/20 05:11:55;;;;;;;42.60;29.17;;;9.10;99.90;;;;;;5090268;28;20050;-72
2021/04/20 05:14:22;;;;;;;49.47;29.30;;;9.40;99.90;;;;;;5089332;28;20042;-80
2021/04/20 05:16:50;;;;;;;45.25;29.15;;;9.00;99.90;;;;;;5097428;28;20038;-74
2021/04/20 05:19:38;;;;;;;46.70;29.02;;;9.10;99.90;;;;;;5080130;28;20047;-74
2021/04/20 05:22:04;;;;;;;42.53;29.10;;;9.20;99.90;;;;;;5100728;28;20056;-75
2021/04/20 05:24:30;;;;;;;45.97;27.67;;;9.10;99.90;;;;;;5079691;28;20437;-76
2021/04/20 05:26:56;;;;;;;45.05;28.20;;;9.10;99.90;;;;;;5090874;28;20039;-78
2021/04/20 05:29:22;;;;;;;46.20;29.40;;;9.30;99.90;;;;;;5104395;28;20040;-73
2021/04/20 05:31:49;;;;;;;45.00;27.52;;;9.20;99.90;;;;;;5110891;27;20031;-76
2021/04/20 05:34:18;;;;;;;40.88;27.15;;;9.80;99.90;;;;;;5097064;28;20092;-72
2021/04/20 05:36:47;;;;;;;43.67;27.85;;;9.60;99.90;;;;;;5114189;28;20039;-72
2021/04/20 05:39:13;;;;;;;40.65;25.85;;;9.80;99.90;;;;;;5114701;28;20055;-74
2021/04/20 05:41:40;;;;;;;50.47;25.35;;;9.40;99.90;;;;;;5096574;28;20088;-72
2021/04/20 05:44:08;;;;;;;37.28;23.67;;;9.40;99.90;;;;;;5114569;28;20043;-72
2021/04/20 05:46:39;;;;;;;42.90;25.55;;;9.40;99.90;;;;;;5096453;28;20487;-72
2021/04/20 05:49:06;;;;;;;40.83;24.48;;;9.50;99.90;;;;;;5114482;28;20035;-72
2021/04/20 05:51:32;;;;;;;46.58;25.23;;;9.70;99.90;;;;;;5096287;28;20491;-72
2021/04/20 05:53:58;;;;;;;38.55;24.23;;;9.50;99.90;;;;;;5079570;28;20040;-72
2021/04/20 05:56:24;;;;;;;35.05;22.67;;;9.50;99.90;;;;;;5099815;28;20039;-72
2021/04/20 05:58:56;;;;;;;33.67;21.90;;;9.50;99.90;;;;;;5062459;28;20384;-73
2021/04/20 06:01:24;;;;;;;34.83;21.27;;;9.50;99.90;;;;;;5114149;28;20070;-74
2021/04/20 06:03:50;;;;;;;33.35;21.42;;;9.60;99.90;;;;;;5114368;28;20031;-72
2021/04/20 06:06:19;;;;;;;33.22;20.60;;;9.60;99.90;;;;;;5113147;28;20047;-74
2021/04/20 06:08:48;;;;;;;33.65;20.75;;;10.00;99.90;;;;;;5114048;28;20425;-74
2021/04/20 06:11:15;;;;;;;31.77;20.48;;;9.70;99.90;;;;;;5113983;28;20039;-74
2021/04/20 06:13:42;;;;;;;38.15;19.70;;;9.80;99.90;;;;;;5096367;28;20030;-74
2021/04/20 06:16:09;;;;;;;31.20;18.88;;;9.80;99.90;;;;;;5114109;28;20482;-71
2021/04/20 06:18:37;;;;;;;26.00;18.17;;;9.80;99.90;;;;;;5113837;28;20042;-74
2021/04/20 06:21:04;;;;;;;32.95;17.67;;;9.80;99.90;;;;;;5113941;28;20057;-74
2021/04/20 06:23:31;;;;;;;30.67;17.90;;;9.90;99.80;;;;;;5113624;28;20066;-72
2021/04/20 06:25:58;;;;;;;26.98;17.65;;;9.90;99.50;;;;;;5096060;28;20032;-72
2021/04/20 06:28:25;;;;;;;32.03;16.55;;;9.90;99.10;;;;;;5113313;28;20059;-72
2021/04/20 06:30:56;;;;;;;27.48;16.13;;;10.00;98.50;;;;;;5113841;28;20470;-72
2021/04/20 06:33:24;;;;;;;30.17;16.98;;;10.00;98.30;;;;;;5095498;28;20046;-74
2021/04/20 06:35:51;;;;;;;31.05;17.23;;;10.00;98.30;;;;;;5113635;28;20069;-74
2021/04/20 06:38:18;;;;;;;28.75;15.38;;;9.90;98.10;;;;;;5113761;28;20040;-75
2021/04/20 06:40:49;;;;;;;23.27;15.10;;;10.00;97.60;;;;;;5113426;28;20035;-75
2021/04/20 06:43:21;;;;;;;30.42;15.63;;;10.10;97.90;;;;;;5095549;28;20115;-75
2021/04/20 06:46:14;;;;;;;23.13;14.80;;;10.00;97.40;;;;;;5095225;28;20146;-75
2021/04/20 06:48:58;;;;;;;24.30;15.93;;;10.00;96.90;;;;;;5113364;28;20033;-74
2021/04/20 06:51:33;;;;;;;26.67;14.85;;;10.00;96.70;;;;;;5095295;28;20027;-75
2021/04/20 06:54:25;;;;;;;26.02;14.90;;;10.00;97.20;;;;;;5095556;28;20036;-75
2021/04/20 06:57:15;;;;;;;26.60;14.70;;;10.00;97.20;;;;;;5101295;28;20028;-74
2021/04/20 06:59:48;;;;;;;23.20;14.15;;;10.10;97.00;;;;;;5095031;28;20044;-74
2021/04/20 07:02:41;;;;;;;26.25;14.73;;;10.20;97.30;;;;;;5113208;28;20360;-74
2021/04/20 07:05:10;;;;;;;31.75;13.48;;;10.20;96.80;;;;;;5099340;28;20417;-75
2021/04/20 07:08:13;;;;;;;31.70;14.07;;;10.30;96.90;;;;;;5113450;28;20044;-75
2021/04/20 07:10:44;;;;;;;25.10;13.43;;;10.40;96.20;;;;;;5084223;28;20043;-75
2021/04/20 07:13:15;;;;;;;21.83;12.68;;;10.30;96.40;;;;;;5095501;28;20040;-75
2021/04/20 07:15:48;;;;;;;26.80;13.27;;;11.00;96.60;;;;;;5113272;28;20031;-75
2021/04/20 07:18:35;;;;;;;21.27;12.27;;;10.50;96.30;;;;;;5094367;28;20044;-75
2021/04/20 07:21:44;;;;;;;24.40;12.80;;;10.50;96.30;;;;;;5113038;28;20116;-75
2021/04/20 07:24:14;;;;;;;27.52;12.93;;;10.50;95.80;;;;;;5027125;28;20049;-75
2021/04/20 07:26:55;;;;;;;30.50;12.90;;;10.50;96.30;;;;;;5108815;28;20050;-72
2021/04/20 07:29:28;;;;;;;20.88;12.85;;;10.60;96.00;;;;;;5112868;28;20062;-72
2021/04/20 07:32:22;;;;;;;25.80;12.70;;;10.60;95.50;;;;;;5112840;28;20483;-72
2021/04/20 07:35:07;;;;;;;25.85;12.32;;;10.60;95.20;;;;;;5113020;28;20038;-72
2021/04/20 07:37:54;;;;;;;25.23;12.55;;;10.70;94.80;;;;;;5112829;28;20067;-72
2021/04/20 07:40:41;;;;;;;24.23;12.95;;;10.70;95.20;;;;;;5112764;28;20055;-72
2021/04/20 07:43:32;;;;;;;18.92;12.43;;;10.70;95.50;;;;;;5101448;28;20032;-72
2021/04/20 07:46:09;;;;;;;26.77;13.27;;;10.80;95.90;;;;;;5099289;28;20043;-72
2021/04/20 07:48:55;;;;;;;19.02;13.43;;;10.90;95.90;;;;;;5112570;28;20409;-72
2021/04/20 07:52:03;;;;;;;21.17;11.77;;;10.90;96.10;;;;;;5112628;28;20115;-75
2021/04/20 07:54:53;;;;;;;25.77;11.95;;;11.00;95.00;;;;;;5112434;28;20035;-75
2021/04/20 07:57:36;;;;;;;20.10;12.13;;;11.00;93.80;;;;;;5112476;28;20398;-75
2021/04/20 08:00:15;;;;;;;25.42;12.05;;;11.00;94.20;;;;;;5081019;28;20040;-72
2021/04/20 08:03:21;;;;;;;22.27;12.73;;;11.00;94.50;;;;;;5112453;28;20483;-75
2021/04/20 08:05:52;;;;;;;26.25;12.95;;;11.10;94.60;;;;;;5112576;28;20035;-74
2021/04/20 08:08:25;;;;;;;28.15;12.52;;;11.10;94.10;;;;;;5094384;28;20032;-75
2021/04/20 08:11:12;;;;;;;17.30;11.45;;;11.20;93.70;;;;;;5094421;28;20039;-72
2021/04/20 08:14:01;;;;;;;22.88;11.40;;;11.20;93.10;;;;;;5094298;28;20039;-72
2021/04/20 08:16:49;;;;;;;23.70;12.52;;;11.40;92.80;;;;;;5108085;28;20055;-74
2021/04/20 08:19:35;;;;;;;25.85;12.82;;;11.30;93.70;;;;;;5094402;28;20475;-74
2021/04/20 08:22:04;;;;;;;20.70;12.00;;;11.30;93.30;;;;;;5112454;28;20100;-72
2021/04/20 08:24:39;;;;;;;26.70;12.40;;;11.40;93.90;;;;;;5112542;28;20479;-72
2021/04/20 08:27:28;;;;;;;22.92;11.25;;;11.40;93.80;;;;;;5112356;28;20043;-72
2021/04/20 08:29:57;;;;;;;18.05;11.73;;;11.40;91.90;;;;;;5095926;28;20058;-72
2021/04/20 08:32:25;;;;;;;20.65;11.55;;;11.40;92.00;;;;;;5098017;28;20055;-72
2021/04/20 08:35:11;;;;;;;19.98;11.38;;;11.40;92.30;;;;;;5116080;28;20040;-72
2021/04/20 08:38:06;;;;;;;24.25;12.32;;;11.40;92.40;;;;;;5103779;28;20032;-72
2021/04/20 08:41:11;;;;;;;17.60;11.73;;;11.50;91.90;;;;;;5115928;28;20063;-72
2021/04/20 08:44:14;;;;;;;22.48;12.38;;;11.60;92.00;;;;;;5115241;28;20047;-72
2021/04/20 08:47:01;;;;;;;21.20;11.80;;;12.20;92.60;;;;;;5063754;28;20067;-72
2021/04/20 08:49:33;;;;;;;23.77;12.50;;;11.70;92.60;;;;;;5102952;28;20536;-72
2021/04/20 08:52:33;;;;;;;19.38;11.90;;;11.70;92.50;;;;;;5097428;28;20039;-72
2021/04/20 08:55:11;;;;;;;18.80;11.93;;;11.80;92.10;;;;;;5097844;28;20111;-72
2021/04/20 08:58:13;;;;;;;20.60;11.75;;;11.90;91.20;;;;;;5091858;28;20433;-75
2021/04/20 09:00:57;;;;;;;15.85;10.63;;;11.90;91.30;;;;;;5115591;28;20040;-75
2021/04/20 09:04:02;;;;;;;18.13;10.93;;;12.00;91.10;;;;;;5115571;28;20058;-75
2021/04/20 09:06:37;;;;;;;15.45;10.02;;;12.10;87.60;;;;;;5115224;28;20108;-75
2021/04/20 09:09:08;;;;;;;24.23;11.50;;;12.20;87.80;;;;;;5097211;28;20084;-75
2021/04/20 09:11:38;;;;;;;21.33;10.82;;;12.20;87.30;;;;;;5115200;28;20122;-74
2021/04/20 09:14:13;;;;;;;18.48;10.70;;;12.80;88.40;;;;;;5115295;28;20105;-75
2021/04/20 09:16:45;;;;;;;19.27;10.52;;;12.30;88.10;;;;;;5115137;28;20032;-75
2021/04/20 09:19:28;;;;;;;17.35;9.93;;;12.40;88.40;;;;;;5096956;28;20047;-72
2021/04/20 09:22:08;;;;;;;13.93;8.88;;;12.50;88.20;;;;;;5096870;28;20087;-73
2021/04/20 09:24:51;;;;;;;18.27;9.50;;;12.50;87.50;;;;;;5115149;28;20066;-73
2021/04/20 09:27:36;;;;;;;18.80;9.23;;;12.60;83.80;;;;;;5114943;28;20391;-73
2021/04/20 09:30:14;;;;;;;19.75;9.07;;;12.60;84.60;;;;;;5114944;28;20092;-73
2021/04/20 09:32:46;;;;;;;18.02;9.40;;;12.60;84.90;;;;;;5096674;28;20032;-73
2021/04/20 09:35:13;;;;;;;17.83;9.68;;;12.70;85.90;;;;;;5114921;28;20043;-73
2021/04/20 09:37:41;;;;;;;19.63;8.93;;;12.80;86.20;;;;;;5114894;28;20043;-74
2021/04/20 09:40:10;;;;;;;17.63;10.10;;;12.80;85.90;;;;;;5114430;28;20065;-74
2021/04/20 09:42:37;;;;;;;15.18;9.20;;;12.90;84.70;;;;;;5114817;28;20027;-74
2021/04/20 09:45:29;;;;;;;18.48;9.40;;;12.90;85.40;;;;;;5114633;28;20035;-74
2021/04/20 09:47:58;;;;;;;15.98;9.02;;;13.00;84.10;;;;;;5103090;28;20076;-74
2021/04/20 09:50:33;;;;;;;19.23;9.30;;;13.00;84.80;;;;;;5096218;28;20046;-74
2021/04/20 09:53:23;;;;;;;19.35;10.35;;;13.10;84.10;;;;;;5114465;28;20031;-73
2021/04/20 09:56:11;;;;;;;26.65;9.32;;;13.10;84.90;;;;;;5095999;28;20063;-73
2021/04/20 09:58:41;;;;;;;21.95;9.73;;;13.10;84.20;;;;;;5103026;28;20478;-73
2021/04/20 10:01:30;;;;;;;21.05;9.18;;;13.10;83.20;;;;;;5114019;28;20074;-73
2021/04/20 10:04:04;;;;;;;18.33;10.20;;;13.20;83.60;;;;;;5114242;28;20103;-73
2021/04/20 10:06:48;;;;;;;17.92;9.70;;;13.50;84.00;;;;;;5113826;28;20429;-73
2021/04/20 10:09:31;;;;;;;18.02;9.63;;;13.30;83.60;;;;;;5096124;28;20056;-73
2021/04/20 10:12:16;;;;;;;21.70;10.32;;;13.30;85.40;;;;;;5096075;28;20032;-73
2021/04/20 10:14:54;;;;;;;23.25;9.63;;;13.40;83.40;;;;;;5095755;28;20035;-73
2021/04/20 10:17:36;;;;;;;15.73;10.20;;;13.40;84.20;;;;;;5095828;28;20036;-72
2021/04/20 10:20:19;;;;;;;15.48;9.23;;;13.50;84.50;;;;;;5113822;28;20485;-73
2021/04/20 10:23:21;;;;;;;25.80;9.43;;;13.50;83.80;;;;;;5113988;28;20059;-72
2021/04/20 10:25:53;;;;;;;17.33;8.25;;;13.60;80.90;;;;;;5102200;28;20483;-73
2021/04/20 10:28:44;;;;;;;15.55;8.85;;;13.60;78.80;;;;;;5095357;28;20109;-73
2021/04/20 10:31:18;;;;;;;17.98;9.32;;;13.70;79.00;;;;;;5113717;28;20115;-73
2021/04/20 10:33:49;;;;;;;19.60;9.73;;;13.70;80.20;;;;;;5113605;28;20035;-74
2021/04/20 10:36:20;;;;;;;19.27;9.05;;;13.70;80.50;;;;;;5113605;28;20032;-74
2021/04/20 10:38:46;;;;;;;16.20;8.50;;;13.80;81.00;;;;;;5113463;28;20059;-74
2021/04/20 10:41:23;;;;;;;19.10;9.00;;;13.90;80.50;;;;;;5095271;28;20093;-74
2021/04/20 10:43:50;;;;;;;20.90;7.93;;;13.90;80.40;;;;;;5113627;28;20039;-75
2021/04/20 10:46:23;;;;;;;16.83;7.75;;;13.90;80.10;;;;;;5113394;28;20092;-73
2021/04/20 10:48:50;;;;;;;15.40;8.13;;;14.00;78.60;;;;;;5111237;28;20039;-75
2021/04/20 10:51:16;;;;;;;18.67;8.98;;;14.10;78.60;;;;;;5101259;28;20036;-75
2021/04/20 10:53:46;;;;;;;14.30;8.13;;;14.00;78.00;;;;;;5094737;28;20032;-74
2021/04/20 10:56:15;;;;;;;19.13;8.60;;;14.10;79.30;;;;;;5112927;28;20544;-75
2021/04/20 10:58:47;;;;;;;25.60;8.25;;;14.10;79.70;;;;;;5113238;28;20047;-73
2021/04/20 11:01:21;;;;;;;14.48;7.70;;;14.20;78.30;;;;;;5113390;28;20490;-73
2021/04/20 11:03:48;;;;;;;17.70;8.57;;;14.30;76.20;;;;;;5113241;28;20040;-73
2021/04/20 11:06:51;;;;;;;20.35;8.30;;;14.30;76.50;;;;;;5112973;28;20434;-73
2021/04/20 11:09:27;;;;;;;17.88;8.13;;;14.40;74.70;;;;;;5095137;28;20039;-73
2021/04/20 11:11:52;;;;;;;13.90;7.80;;;14.40;74.90;;;;;;5113183;28;20032;-75
2021/04/20 11:14:46;;;;;;;17.85;8.68;;;14.40;76.00;;;;;;5113108;28;20473;-75
2021/04/20 11:17:50;;;;;;;24.63;9.40;;;14.50;73.70;;;;;;5094783;28;20039;-75
2021/04/20 11:20:18;;;;;;;20.20;8.07;;;14.50;75.40;;;;;;5112942;28;20040;-75
2021/04/20 11:23:14;;;;;;;19.30;7.68;;;14.60;75.10;;;;;;5112922;28;20042;-75
2021/04/20 11:25:39;;;;;;;22.10;7.78;;;14.70;71.80;;;;;;5112981;28;20024;-73
2021/04/20 11:28:19;;;;;;;10.85;7.25;;;14.70;72.70;;;;;;5094733;28;20073;-73
2021/04/20 11:31:01;;;;;;;12.82;7.18;;;14.70;72.30;;;;;;5100045;28;20109;-73
2021/04/20 11:33:42;;;;;;;15.13;7.30;;;14.70;71.30;;;;;;5094362;28;20039;-73
2021/04/20 11:36:19;;;;;;;10.25;5.88;;;14.80;69.10;;;;;;5094469;28;20035;-73
2021/04/20 11:38:48;;;;;;;8.65;4.80;;;14.80;66.70;;;;;;5091655;28;20028;-73
2021/04/20 11:41:17;;;;;;;13.30;5.50;;;14.90;65.80;;;;;;5102306;28;20054;-75
2021/04/20 11:43:51;;;;;;;8.88;4.80;;;15.00;63.20;;;;;;5094532;28;20032;-75
2021/04/20 11:46:21;;;;;;;9.55;3.83;;;15.00;60.80;;;;;;5094716;28;20566;-75
2021/04/20 11:48:50;;;;;;;9.60;3.30;;;15.20;57.10;;;;;;5112640;28;20039;-75
2021/04/20 11:51:16;;;;;;;11.57;4.15;;;15.20;57.50;;;;;;5112735;28;20038;-75
2021/04/20 11:53:46;;;;;;;10.63;3.92;;;15.10;58.00;;;;;;5094806;28;20070;-75
2021/04/20 11:56:12;;;;;;;15.30;4.00;;;15.20;59.50;;;;;;5094128;28;20028;-75
2021/04/20 11:58:43;;;;;;;6.93;3.63;;;15.30;59.10;;;;;;5113184;28;20046;-75
2021/04/20 12:01:21;;;;;;;11.00;3.50;;;15.30;57.30;;;;;;5113304;28;20043;-75
2021/04/20 12:04:00;;;;;;;9.15;3.40;;;15.30;59.00;;;;;;5097613;28;20070;-75
2021/04/20 12:06:39;;;;;;;14.50;4.00;;;15.40;57.80;;;;;;5116533;28;20376;-75
2021/04/20 12:09:07;;;;;;;9.30;4.10;;;15.40;56.50;;;;;;5098391;28;20035;-75
2021/04/20 12:11:34;;;;;;;10.10;3.60;;;15.50;56.30;;;;;;5094888;28;20070;-76
2021/04/20 12:14:01;;;;;;;5.72;3.00;;;15.50;56.50;;;;;;5105655;28;20023;-75
2021/04/20 12:16:35;;;;;;;8.63;3.75;;;15.60;57.80;;;;;;5098169;28;20043;-75
2021/04/20 12:19:06;;;;;;;12.32;3.92;;;15.60;58.20;;;;;;5116433;28;20031;-76
2021/04/20 12:21:36;;;;;;;7.22;3.65;;;15.60;58.70;;;;;;5116198;28;20364;-76
2021/04/20 12:24:03;;;;;;;9.13;4.38;;;15.60;58.80;;;;;;5116299;28;20111;-75
2021/04/20 12:26:31;;;;;;;7.47;3.78;;;15.60;57.40;;;;;;5116180;28;20111;-73
2021/04/20 12:29:00;;;;;;;10.43;3.78;;;15.70;57.60;;;;;;5097847;28;20044;-73
2021/04/20 12:31:31;;;;;;;9.75;3.85;;;15.70;58.50;;;;;;5116142;28;20044;-73
2021/04/20 12:33:57;;;;;;;12.45;4.22;;;15.70;59.00;;;;;;5115893;28;20040;-73
2021/04/20 12:36:29;;;;;;;11.38;3.85;;;15.70;60.30;;;;;;5097767;28;20110;-73
2021/04/20 12:39:01;;;;;;;10.10;3.47;;;15.80;59.90;;;;;;5115836;28;20106;-73
2021/04/20 12:41:30;;;;;;;10.15;3.45;;;15.80;59.20;;;;;;5115961;28;20063;-73
2021/04/20 12:43:59;;;;;;;13.90;4.18;;;15.90;56.70;;;;;;5115683;28;20059;-73
2021/04/20 12:46:27;;;;;;;10.48;3.97;;;15.90;54.90;;;;;;5115721;28;20125;-73
2021/04/20 12:48:56;;;;;;;10.32;4.63;;;15.80;57.70;;;;;;5115551;28;20111;-73
2021/04/20 12:51:25;;;;;;;15.07;4.65;;;15.80;59.80;;;;;;5115578;28;20035;-73
2021/04/20 12:53:52;;;;;;;12.60;4.47;;;16.00;60.50;;;;;;5115648;28;20038;-73
2021/04/20 12:56:28;;;;;;;11.48;3.88;;;16.00;59.20;;;;;;5115326;28;20078;-73
2021/04/20 12:58:56;;;;;;;11.32;3.88;;;16.00;60.00;;;;;;5115617;28;20088;-74
2021/04/20 13:01:23;;;;;;;15.20;4.20;;;16.10;58.40;;;;;;5097483;28;20038;-74
2021/04/20 13:03:50;;;;;;;14.15;4.13;;;16.10;57.90;;;;;;5115451;28;20059;-74